createdAt,value
2023-04-15T00:00:56.170Z,97437.34
2023-04-15T00:03:23.734Z,97439.97
2023-04-15T00:05:50.326Z,97437.88
2023-04-15T00:08:16.799Z,97430.06
2023-04-15T00:10:44.444Z,97438.56
2023-04-15T00:13:10.963Z,97435.13
2023-04-15T00:15:37.686Z,97425.38
2023-04-15T00:18:04.480Z,97422.94
2023-04-15T00:20:31.362Z,97435.59
2023-04-15T00:22:59.415Z,97427.56
2023-04-15T00:25:26.027Z,97419.31
2023-04-15T00:27:52.621Z,97420.44
2023-04-15T00:30:19.642Z,97423.22
2023-04-15T00:32:46.857Z,97420.91
2023-04-15T00:35:13.847Z,97423.78
2023-04-15T00:37:40.457Z,97418.97
2023-04-15T00:40:11.118Z,97415.06
2023-04-15T00:42:37.630Z,97415.88
2023-04-15T00:45:04.396Z,97421.94
2023-04-15T00:47:30.932Z,97423.22
2023-04-15T00:49:58.035Z,97423.59
2023-04-15T00:52:24.547Z,97422.91
2023-04-15T00:54:52.324Z,97423.59
2023-04-15T00:57:18.801Z,97415.06
2023-04-15T00:59:45.297Z,97426.47
2023-04-15T01:02:11.959Z,97416.22
2023-04-15T01:04:38.684Z,97415.44
2023-04-15T01:07:05.233Z,97411.88
2023-04-15T01:09:31.785Z,97416.81
2023-04-15T01:11:58.566Z,97420.78
2023-04-15T01:14:25.833Z,97413.91
2023-04-15T01:16:52.906Z,97414.06
2023-04-15T01:19:19.403Z,97409.38
2023-04-15T01:21:46.020Z,97404.16
2023-04-15T01:24:12.539Z,97410.34
2023-04-15T01:26:39.384Z,97413.34
2023-04-15T01:29:06.640Z,97415.84
2023-04-15T01:31:33.181Z,97408.63
2023-04-15T01:34:00.958Z,97414.63
2023-04-15T01:36:27.903Z,97412.75
2023-04-15T01:38:54.720Z,97407.03
2023-04-15T01:41:28.242Z,97403.69
2023-04-15T01:43:55.017Z,97405.19
2023-04-15T01:46:22.223Z,97402.56
2023-04-15T01:48:48.747Z,97406.69
2023-04-15T01:51:15.204Z,97408.75
2023-04-15T01:53:41.693Z,97397.63
2023-04-15T01:56:08.232Z,97402.09
2023-04-15T01:58:34.864Z,97410.72
2023-04-15T02:01:02.997Z,97405.09
2023-04-15T02:03:29.805Z,97400.28
2023-04-15T02:05:56.711Z,97399.47
2023-04-15T02:08:23.197Z,97392.47
2023-04-15T02:10:49.726Z,97400.47
2023-04-15T02:13:17.237Z,97399.09
2023-04-15T02:15:48.437Z,97402.09
2023-04-15T02:18:16.270Z,97393.03
2023-04-15T02:20:44.655Z,97398.66
2023-04-15T02:23:11.732Z,97395.44
2023-04-15T02:25:39.059Z,97397.97
2023-04-15T02:28:06.334Z,97405.78
2023-04-15T02:30:33.771Z,97403.81
2023-04-15T02:33:00.988Z,97396.81
2023-04-15T02:35:27.723Z,97400.69
2023-04-15T02:37:54.225Z,97400.34
2023-04-15T02:40:20.759Z,97408.53
2023-04-15T02:42:47.300Z,97406.06
2023-04-15T02:45:13.856Z,97409.63
2023-04-15T02:47:43.339Z,97406.91
2023-04-15T02:50:12.705Z,97401.03
2023-04-15T02:52:42.884Z,97400.22
2023-04-15T02:55:09.688Z,97397.94
2023-04-15T02:57:40.657Z,97395.06
2023-04-15T03:00:09.664Z,97397.13
2023-04-15T03:02:36.954Z,97392.09
2023-04-15T03:05:04.362Z,97399.56
2023-04-15T03:07:31.096Z,97400.34
2023-04-15T03:09:57.818Z,97405.84
2023-04-15T03:12:24.380Z,97409.06
2023-04-15T03:14:50.831Z,97416.41
2023-04-15T03:17:18.049Z,97417.53
2023-04-15T03:19:44.516Z,97412.38
2023-04-15T03:22:11.037Z,97411.66
2023-04-15T03:24:37.517Z,97419.09
2023-04-15T03:27:04.047Z,97420.81
2023-04-15T03:29:30.706Z,97425.84
2023-04-15T03:32:00.193Z,97425.06
2023-04-15T03:34:26.679Z,97421.03
2023-04-15T03:36:53.380Z,97425.19
2023-04-15T03:39:19.926Z,97421.84
2023-04-15T03:41:46.387Z,97415.53
2023-04-15T03:44:12.867Z,97416.53
2023-04-15T03:46:39.401Z,97421.69
2023-04-15T03:49:07.059Z,97422.97
2023-04-15T03:51:33.551Z,97421.56
2023-04-15T03:54:00.028Z,97423.19
2023-04-15T03:56:27.012Z,97428.13
2023-04-15T03:58:53.525Z,97424.38
2023-04-15T04:01:19.992Z,97429.75
2023-04-15T04:03:46.663Z,97430.88
2023-04-15T04:06:13.181Z,97434.25
2023-04-15T04:08:39.727Z,97428.50
2023-04-15T04:11:06.576Z,97423.56
2023-04-15T04:13:33.079Z,97417.28
2023-04-15T04:15:59.628Z,97422.91
2023-04-15T04:18:26.151Z,97421.28
2023-04-15T04:20:52.634Z,97425.06
2023-04-15T04:23:19.126Z,97421.84
2023-04-15T04:25:46.141Z,97433.00
2023-04-15T04:28:12.955Z,97438.72
2023-04-15T04:30:39.939Z,97444.94
2023-04-15T04:33:07.116Z,97442.19
2023-04-15T04:35:35.004Z,97445.53
2023-04-15T04:38:01.628Z,97450.22
2023-04-15T04:40:28.104Z,97442.78
2023-04-15T04:42:54.634Z,97440.03
2023-04-15T04:45:21.134Z,97442.91
2023-04-15T04:47:47.955Z,97434.19
2023-04-15T04:50:14.493Z,97444.06
2023-04-15T04:52:41.140Z,97438.31
2023-04-15T04:55:08.512Z,97432.34
2023-04-15T04:57:39.674Z,97435.41
2023-04-15T05:00:08.359Z,97428.69
2023-04-15T05:02:35.276Z,97433.25
2023-04-15T05:05:01.865Z,97434.88
2023-04-15T05:07:28.358Z,97446.34
2023-04-15T05:09:54.840Z,97434.75
2023-04-15T05:12:21.596Z,97445.66
2023-04-15T05:14:48.079Z,97447.22
2023-04-15T05:17:15.525Z,97447.13
2023-04-15T05:19:42.043Z,97447.50
2023-04-15T05:22:08.629Z,97446.00
2023-04-15T05:24:35.147Z,97447.84
2023-04-15T05:27:02.330Z,97444.16
2023-04-15T05:29:28.833Z,97447.22
2023-04-15T05:31:55.890Z,97446.22
2023-04-15T05:34:22.426Z,97453.91
2023-04-15T05:36:48.947Z,97457.22
2023-04-15T05:39:15.490Z,97452.31
2023-04-15T05:41:42.048Z,97452.97
2023-04-15T05:44:08.523Z,97457.00
2023-04-15T05:46:35.154Z,97458.84
2023-04-15T05:49:01.920Z,97460.44
2023-04-15T05:51:28.474Z,97462.66
2023-04-15T05:53:54.936Z,97474.81
2023-04-15T05:56:22.132Z,97464.03
2023-04-15T05:58:48.645Z,97464.94
2023-04-15T06:01:15.473Z,97469.09
2023-04-15T06:03:42.573Z,97466.91
2023-04-15T06:06:09.876Z,97478.38
2023-04-15T06:08:36.670Z,97477.91
2023-04-15T06:11:03.276Z,97477.34
2023-04-15T06:13:29.780Z,97470.44
2023-04-15T06:15:56.554Z,97481.13
2023-04-15T06:18:23.060Z,97483.06
2023-04-15T06:20:49.817Z,97478.84
2023-04-15T06:23:16.344Z,97484.22
2023-04-15T06:25:42.854Z,97485.34
2023-04-15T06:28:09.337Z,97484.97
2023-04-15T06:30:36.208Z,97491.84
2023-04-15T06:33:05.514Z,97484.53
2023-04-15T06:35:32.226Z,97487.94
2023-04-15T06:37:58.720Z,97499.91
2023-04-15T06:40:25.195Z,97497.00
2023-04-15T06:42:51.719Z,97497.72
2023-04-15T06:45:18.803Z,97504.00
2023-04-15T06:47:45.362Z,97504.22
2023-04-15T06:50:12.445Z,97504.13
2023-04-15T06:52:38.915Z,97497.47
2023-04-15T06:55:06.963Z,97497.34
2023-04-15T06:57:35.066Z,97499.75
2023-04-15T07:00:01.947Z,97502.03
2023-04-15T07:02:28.497Z,97513.88
2023-04-15T07:04:55.567Z,97516.31
2023-04-15T07:07:22.255Z,97524.31
2023-04-15T07:09:48.761Z,97514.91
2023-04-15T07:12:15.275Z,97510.47
2023-04-15T07:14:41.781Z,97519.16
2023-04-15T07:17:09.325Z,97513.47
2023-04-15T07:19:35.888Z,97520.25
2023-04-15T07:22:02.955Z,97520.03
2023-04-15T07:24:30.164Z,97522.25
2023-04-15T07:26:59.516Z,97521.00
2023-04-15T07:29:27.442Z,97522.34
2023-04-15T07:31:53.908Z,97514.22
2023-04-15T07:34:21.225Z,97516.50
2023-04-15T07:36:50.588Z,97513.84
2023-04-15T07:39:17.483Z,97510.19
2023-04-15T07:41:43.968Z,97514.22
2023-04-15T07:44:10.471Z,97523.56
2023-04-15T07:46:38.362Z,97520.00
2023-04-15T07:49:05.167Z,97529.66
2023-04-15T07:51:32.336Z,97530.47
2023-04-15T07:53:59.223Z,97533.22
2023-04-15T07:56:26.435Z,97535.41
2023-04-15T07:58:53.191Z,97534.16
2023-04-15T08:01:19.690Z,97525.91
2023-04-15T08:03:46.532Z,97532.22
2023-04-15T08:06:13.170Z,97537.13
2023-04-15T08:08:39.936Z,97531.50
2023-04-15T08:11:06.460Z,97545.06
2023-04-15T08:13:32.954Z,97536.00
2023-04-15T08:16:22.406Z,97537.59
2023-04-15T08:18:49.345Z,97530.84
2023-04-15T08:21:16.430Z,97537.03
2023-04-15T08:23:43.718Z,97537.25
2023-04-15T08:26:10.268Z,97536.34
2023-04-15T08:28:38.550Z,97537.50
2023-04-15T08:31:05.087Z,97535.41
2023-04-15T08:33:31.577Z,97549.19
2023-04-15T08:35:58.458Z,97550.00
2023-04-15T08:38:24.970Z,97560.00
2023-04-15T08:40:51.624Z,97555.28
2023-04-15T08:43:28.637Z,97555.63
2023-04-15T08:45:55.812Z,97558.16
2023-04-15T08:48:24.506Z,97554.69
2023-04-15T08:50:51.022Z,97555.41
2023-04-15T08:53:17.545Z,97560.19
2023-04-15T08:55:45.854Z,97556.31
2023-04-15T08:58:15.906Z,97551.50
2023-04-15T09:00:42.367Z,97557.44
2023-04-15T09:03:09.230Z,97565.72
2023-04-15T09:05:36.473Z,97560.78
2023-04-15T09:08:03.724Z,97561.38
2023-04-15T09:10:30.851Z,97575.50
2023-04-15T09:12:57.392Z,97574.34
2023-04-15T09:15:29.894Z,97573.38
2023-04-15T09:17:56.914Z,97567.28
2023-04-15T09:20:23.759Z,97565.00
2023-04-15T09:22:50.529Z,97566.72
2023-04-15T09:25:23.030Z,97576.13
2023-04-15T09:27:52.861Z,97575.47
2023-04-15T09:30:19.325Z,97586.72
2023-04-15T09:32:56.471Z,97579.38
2023-04-15T09:35:23.558Z,97586.91
2023-04-15T09:37:50.438Z,97594.38
2023-04-15T09:40:33.613Z,97587.38
2023-04-15T09:43:00.271Z,97587.50
2023-04-15T09:45:29.565Z,97594.53
2023-04-15T09:48:00.949Z,97598.91
2023-04-15T09:50:28.950Z,97604.91
2023-04-15T09:52:55.737Z,97603.97
2023-04-15T09:55:22.599Z,97608.78
2023-04-15T09:57:49.128Z,97607.19
2023-04-15T10:00:15.958Z,97607.41
2023-04-15T10:02:42.699Z,97606.50
2023-04-15T10:05:14.365Z,97616.38
2023-04-15T10:07:43.678Z,97612.47
2023-04-15T10:10:10.991Z,97621.56
2023-04-15T10:12:37.847Z,97615.56
2023-04-15T10:15:05.093Z,97618.66
2023-04-15T10:17:37.126Z,97614.78
2023-04-15T10:20:05.421Z,97623.38
2023-04-15T10:22:32.928Z,97633.38
2023-04-15T10:25:00.770Z,97640.59
2023-04-15T10:27:27.858Z,97644.03
2023-04-15T10:29:54.390Z,97635.53
2023-04-15T10:32:21.230Z,97636.34
2023-04-15T10:34:48.597Z,97641.66
2023-04-15T10:37:23.333Z,97640.94
2023-04-15T10:39:50.689Z,97644.41
2023-04-15T10:42:19.170Z,97647.50
2023-04-15T10:44:49.088Z,97646.59
2023-04-15T10:47:19.456Z,97640.03
2023-04-15T10:49:47.942Z,97642.81
2023-04-15T10:52:15.082Z,97651.41
2023-04-15T10:54:41.783Z,97645.34
2023-04-15T10:57:10.465Z,97643.75
2023-04-15T10:59:38.181Z,97647.44
2023-04-15T11:02:07.950Z,97651.53
2023-04-15T11:04:53.428Z,97644.41
2023-04-15T11:07:41.150Z,97650.53
2023-04-15T11:10:13.664Z,97640.97
2023-04-15T11:12:40.506Z,97640.97
2023-04-15T11:15:46.509Z,97657.66
2023-04-15T11:18:13.585Z,97653.75
2023-04-15T11:20:41.568Z,97656.16
2023-04-15T11:23:15.086Z,97649.25
2023-04-15T11:25:43.083Z,97653.53
2023-04-15T11:28:09.977Z,97652.13
2023-04-15T11:30:37.374Z,97660.19
2023-04-15T11:33:05.504Z,97655.81
2023-04-15T11:35:31.995Z,97671.81
2023-04-15T11:37:58.626Z,97666.28
2023-04-15T11:40:29.268Z,97675.91
2023-04-15T11:43:11.684Z,97677.53
2023-04-15T11:45:48.997Z,97681.34
2023-04-15T11:48:15.826Z,97683.38
2023-04-15T11:50:42.299Z,97681.22
2023-04-15T11:53:10.802Z,97679.38
2023-04-15T11:55:47.409Z,97679.25
2023-04-15T11:58:22.445Z,97682.81
2023-04-15T12:00:50.840Z,97681.13
2023-04-15T12:03:30.414Z,97683.06
2023-04-15T12:06:03.494Z,97686.50
2023-04-15T12:08:52.581Z,97688.94
2023-04-15T12:11:41.389Z,97692.16
2023-04-15T12:14:21.897Z,97698.47
2023-04-15T12:16:50.939Z,97698.69
2023-04-15T12:19:32.650Z,97700.97
2023-04-15T12:22:01.039Z,97708.00
2023-04-15T12:24:27.810Z,97714.31
2023-04-15T12:26:55.952Z,97719.28
2023-04-15T12:29:25.806Z,97720.06
2023-04-15T12:32:11.760Z,97728.94
2023-04-15T12:34:52.614Z,97728.34
2023-04-15T12:37:19.482Z,97727.34
2023-04-15T12:39:48.829Z,97729.50
2023-04-15T12:42:15.671Z,97730.09
2023-04-15T12:44:42.246Z,97724.34
2023-04-15T12:47:09.138Z,97732.72
2023-04-15T12:49:35.655Z,97740.78
2023-04-15T12:52:02.347Z,97737.78
2023-04-15T12:54:29.822Z,97740.44
2023-04-15T12:56:56.325Z,97742.16
2023-04-15T12:59:24.063Z,97744.22
2023-04-15T13:01:51.980Z,97755.88
2023-04-15T13:04:19.132Z,97760.31
2023-04-15T13:06:45.927Z,97758.59
2023-04-15T13:09:12.445Z,97768.72
2023-04-15T13:11:38.927Z,97771.16
2023-04-15T13:14:06.754Z,97774.84
2023-04-15T13:16:34.134Z,97781.16
2023-04-15T13:19:01.508Z,97779.31
2023-04-15T13:21:28.276Z,97784.59
2023-04-15T13:23:54.826Z,97786.56
2023-04-15T13:26:21.296Z,97793.34
2023-04-15T13:28:47.931Z,97796.59
2023-04-15T13:31:14.495Z,97810.03
2023-04-15T13:33:41.085Z,97809.69
2023-04-15T13:36:07.801Z,97812.56
2023-04-15T13:38:34.323Z,97819.00
2023-04-15T13:41:00.865Z,97821.44
2023-04-15T13:43:27.571Z,97823.59
2023-04-15T13:45:54.114Z,97823.72
2023-04-15T13:48:20.688Z,97821.31
2023-04-15T13:50:47.154Z,97821.75
2023-04-15T13:53:13.687Z,97824.53
2023-04-15T13:55:43.103Z,97837.53
2023-04-15T13:58:10.010Z,97833.28
2023-04-15T14:00:36.595Z,97842.16
2023-04-15T14:03:03.337Z,97838.56
2023-04-15T14:05:29.934Z,97840.19
2023-04-15T14:07:56.726Z,97842.25
2023-04-15T14:10:23.249Z,97840.72
2023-04-15T14:12:49.738Z,97842.13
2023-04-15T14:15:16.269Z,97856.41
2023-04-15T14:17:42.961Z,97849.16
2023-04-15T14:20:09.818Z,97855.50
2023-04-15T14:22:36.359Z,97857.06
2023-04-15T14:25:03.007Z,97866.75
2023-04-15T14:27:29.515Z,97867.56
2023-04-15T14:29:57.781Z,97866.66
2023-04-15T14:32:26.016Z,97875.41
2023-04-15T14:34:52.561Z,97880.34
2023-04-15T14:37:19.120Z,97878.59
2023-04-15T14:39:45.640Z,97887.00
2023-04-15T14:42:12.129Z,97893.94
2023-04-15T14:44:38.637Z,97895.44
2023-04-15T14:47:05.837Z,97900.72
2023-04-15T14:49:32.627Z,97908.31
2023-04-15T14:51:59.087Z,97906.69
2023-04-15T14:54:25.543Z,97906.81
2023-04-15T14:56:52.039Z,97913.03
2023-04-15T14:59:18.522Z,97917.88
2023-04-15T15:01:45.469Z,97915.44
2023-04-15T15:04:12.928Z,97928.13
2023-04-15T15:06:40.018Z,97927.44
2023-04-15T15:09:06.740Z,97929.53
2023-04-15T15:11:33.541Z,97937.09
2023-04-15T15:14:00.393Z,97936.41
2023-04-15T15:16:28.253Z,97942.88
2023-04-15T15:18:55.035Z,97940.91
2023-04-15T15:21:21.522Z,97941.94
2023-04-15T15:23:48.500Z,97948.06
2023-04-15T15:26:15.202Z,97945.63
2023-04-15T15:28:42.229Z,97949.22
2023-04-15T15:31:08.786Z,97945.06
2023-04-15T15:33:35.380Z,97951.63
2023-04-15T15:36:02.142Z,97953.25
2023-04-15T15:38:28.652Z,97954.25
2023-04-15T15:40:55.128Z,97966.38
2023-04-15T15:43:21.651Z,97966.63
2023-04-15T15:45:51.551Z,97963.59
2023-04-15T15:48:18.474Z,97971.22
2023-04-15T15:50:45.463Z,97971.91
2023-04-15T15:53:12.416Z,97978.44
2023-04-15T15:55:38.892Z,97986.88
2023-04-15T15:58:05.386Z,97979.28
2023-04-15T16:00:31.951Z,97984.38
2023-04-15T16:05:28.046Z,97969.13
2023-04-15T16:07:54.569Z,97967.03
2023-04-15T16:10:21.044Z,97968.88
2023-04-15T16:12:47.518Z,97977.28
2023-04-15T16:15:14.577Z,97980.06
2023-04-15T16:17:41.111Z,97985.94
2023-04-15T16:20:08.397Z,97986.16
2023-04-15T16:22:35.009Z,97984.56
2023-04-15T16:25:01.600Z,97980.97
2023-04-15T16:27:30.925Z,97994.78
2023-04-15T16:29:57.429Z,97997.81
2023-04-15T16:32:23.951Z,98000.13
2023-04-15T16:34:50.532Z,98002.66
2023-04-15T16:37:16.992Z,98006.22
2023-04-15T16:39:43.475Z,97997.00
2023-04-15T16:42:10.224Z,98007.94
2023-04-15T16:44:36.798Z,98007.19
2023-04-15T16:47:03.296Z,98013.50
2023-04-15T16:49:29.914Z,98006.72
2023-04-15T16:51:56.488Z,98005.56
2023-04-15T16:54:22.973Z,98015.34
2023-04-15T16:56:49.733Z,98006.47
2023-04-15T16:59:16.368Z,98016.50
2023-04-15T17:01:43.098Z,98009.47
2023-04-15T17:04:09.826Z,98015.59
2023-04-15T17:06:36.389Z,98005.69
2023-04-15T17:09:03.606Z,98006.47
2023-04-15T17:11:31.256Z,98006.03
2023-04-15T17:13:57.753Z,98001.97
2023-04-15T17:16:25.022Z,98010.53
2023-04-15T17:18:51.570Z,98015.34
2023-04-15T17:21:18.102Z,98025.94
2023-04-15T17:23:44.645Z,98033.44
2023-04-15T17:26:11.194Z,98045.22
2023-04-15T17:28:37.971Z,98043.81
2023-04-15T17:31:04.753Z,98055.00
2023-04-15T17:34:01.274Z,98052.13
2023-04-15T17:36:17.776Z,98053.03
2023-04-15T17:38:44.326Z,98054.66
2023-04-15T17:41:10.823Z,98053.97
2023-04-15T17:43:37.582Z,98056.84
2023-04-15T17:46:06.464Z,98066.88
2023-04-15T17:48:33.657Z,98073.56
2023-04-15T17:51:00.193Z,98065.72
2023-04-15T17:53:26.649Z,98070.09
2023-04-15T17:55:53.706Z,98068.50
2023-04-15T17:58:20.260Z,98075.38
2023-04-15T18:00:47.031Z,98081.84
2023-04-15T18:03:13.622Z,98086.09
2023-04-15T18:05:42.399Z,98088.41
2023-04-15T18:08:09.174Z,98090.50
2023-04-15T18:10:35.942Z,98093.13
2023-04-15T18:13:03.348Z,98095.47
2023-04-15T18:15:32.964Z,98105.34
2023-04-15T18:17:59.666Z,98101.66
2023-04-15T18:20:26.145Z,98115.47
2023-04-15T18:22:52.680Z,98107.53
2023-04-15T18:25:19.168Z,98117.94
2023-04-15T18:27:45.681Z,98116.63
2023-04-15T18:30:12.422Z,98116.63
2023-04-15T18:32:38.940Z,98129.31
2023-04-15T18:35:05.876Z,98131.13
2023-04-15T18:37:32.651Z,98145.09
2023-04-15T18:39:59.175Z,98149.34
2023-04-15T18:42:25.884Z,98152.56
2023-04-15T18:44:52.928Z,98157.91
2023-04-15T18:47:19.444Z,98156.75
2023-04-15T18:49:46.089Z,98151.13
2023-04-15T18:52:12.867Z,98158.84
2023-04-15T18:54:39.390Z,98162.41
2023-04-15T18:57:06.430Z,98169.34
2023-04-15T18:59:33.674Z,98171.19
2023-04-15T19:02:00.477Z,98170.03
2023-04-15T19:04:28.825Z,98185.47
2023-04-15T19:06:55.953Z,98189.72
2023-04-15T19:09:22.485Z,98182.09
2023-04-15T19:11:48.960Z,98194.78
2023-04-15T19:14:15.463Z,98188.91
2023-04-15T19:16:41.948Z,98202.53
2023-04-15T19:19:08.502Z,98202.00
2023-04-15T19:21:34.980Z,98200.13
2023-04-15T19:24:01.540Z,98199.22
2023-04-15T19:26:28.329Z,98198.41
2023-04-15T19:28:56.410Z,98210.38
2023-04-15T19:31:23.005Z,98211.91
2023-04-15T19:33:49.574Z,98212.34
2023-04-15T19:36:18.029Z,98217.06
2023-04-15T19:38:44.510Z,98212.81
2023-04-15T19:41:11.138Z,98215.03
2023-04-15T19:43:37.656Z,98221.03
2023-04-15T19:46:04.191Z,98219.41
2023-04-15T19:48:30.862Z,98229.66
2023-04-15T19:50:57.375Z,98227.59
2023-04-15T19:53:25.530Z,98225.16
2023-04-15T19:55:52.115Z,98227.25
2023-04-15T19:58:18.637Z,98222.53
2023-04-15T20:00:45.363Z,98226.44
2023-04-15T20:03:12.022Z,98218.22
2023-04-15T20:05:38.668Z,98229.41
2023-04-15T20:08:05.144Z,98228.72
2023-04-15T20:10:31.953Z,98227.91
2023-04-15T20:12:58.481Z,98232.19
2023-04-15T20:15:25.084Z,98233.31
2023-04-15T20:17:51.682Z,98229.06
2023-04-15T20:20:18.350Z,98227.44
2023-04-15T20:22:44.862Z,98230.91
2023-04-15T20:25:11.710Z,98231.38
2023-04-15T20:27:38.223Z,98232.53
2023-04-15T20:30:05.127Z,98236.91
2023-04-15T20:32:35.431Z,98239.56
2023-04-15T20:35:03.174Z,98238.38
2023-04-15T20:37:30.743Z,98246.69
2023-04-15T20:39:57.247Z,98245.69
2023-04-15T20:42:23.767Z,98248.91
2023-04-15T20:44:50.514Z,98245.34
2023-04-15T20:47:17.162Z,98251.53
2023-04-15T20:49:43.741Z,98253.50
2023-04-15T20:52:10.675Z,98258.69
2023-04-15T20:54:37.164Z,98255.25
2023-04-15T20:57:03.697Z,98257.22
2023-04-15T20:59:30.505Z,98260.44
2023-04-15T21:01:57.485Z,98255.38
2023-04-15T21:04:24.525Z,98254.91
2023-04-15T21:06:52.046Z,98262.75
2023-04-15T21:09:18.768Z,98259.78
2023-04-15T21:14:19.521Z,98276.25
2023-04-15T21:16:46.034Z,98268.75
2023-04-15T21:19:12.632Z,98277.84
2023-04-15T21:21:39.134Z,98281.44
2023-04-15T21:24:07.649Z,98271.53
2023-04-15T21:26:35.623Z,98277.31
2023-04-15T21:29:02.250Z,98280.41
2023-04-15T21:31:28.833Z,98279.34
2023-04-15T21:33:55.345Z,98282.94
2023-04-15T21:36:21.866Z,98279.34
2023-04-15T21:38:48.624Z,98286.97
2023-04-15T21:41:15.095Z,98287.78
2023-04-15T21:43:41.573Z,98282.59
2023-04-15T21:46:23.537Z,98295.00
2023-04-15T21:48:53.087Z,98285.44
2023-04-15T21:51:19.596Z,98292.81
2023-04-15T21:53:46.094Z,98293.97
2023-04-15T21:56:12.681Z,98295.78
2023-04-15T21:58:39.135Z,98302.09
2023-04-15T22:01:05.702Z,98296.06
2023-04-15T22:03:33.899Z,98300.31
2023-04-15T22:06:01.778Z,98310.75
2023-04-15T22:08:28.301Z,98318.66
2023-04-15T22:10:55.057Z,98311.75
2023-04-15T22:13:21.855Z,98310.41
2023-04-15T22:15:48.375Z,98305.03
2023-04-15T22:18:14.866Z,98312.50
2023-04-15T22:20:41.466Z,98305.22
2023-04-15T22:23:08.921Z,98315.56
2023-04-15T22:25:37.030Z,98311.09
2023-04-15T22:28:06.839Z,98308.41
2023-04-15T22:30:40.667Z,98322.41
2023-04-15T22:33:07.411Z,98322.81
2023-04-15T22:35:34.484Z,98331.09
2023-04-15T22:38:01.276Z,98329.09
2023-04-15T22:40:28.647Z,98323.25
2023-04-15T22:42:55.160Z,98327.81
2023-04-15T22:45:21.650Z,98336.19
2023-04-15T22:47:48.173Z,98331.88
2023-04-15T22:50:14.712Z,98338.34
2023-04-15T22:52:41.232Z,98333.34
2023-04-15T22:55:08.357Z,98341.44
2023-04-15T22:57:34.822Z,98355.75
2023-04-15T23:00:01.898Z,98355.75
2023-04-15T23:02:28.588Z,98359.09
2023-04-15T23:04:55.362Z,98356.00
2023-04-15T23:07:21.908Z,98362.16
2023-04-15T23:09:48.401Z,98364.09
2023-04-15T23:12:14.923Z,98371.41
2023-04-15T23:14:41.475Z,98365.41
2023-04-15T23:17:07.955Z,98370.59
2023-04-15T23:19:34.414Z,98377.41
2023-04-15T23:22:00.953Z,98378.41
2023-04-15T23:24:27.423Z,98380.69
2023-04-15T23:26:53.943Z,98374.50
2023-04-15T23:29:20.424Z,98375.97
2023-04-15T23:31:46.963Z,98365.06
2023-04-15T23:34:13.456Z,98368.31
2023-04-15T23:36:40.400Z,98369.63
2023-04-15T23:39:07.105Z,98365.72
2023-04-15T23:41:33.796Z,98371.41
2023-04-15T23:44:00.541Z,98375.78
2023-04-15T23:46:27.237Z,98371.72
2023-04-15T23:48:53.778Z,98360.19
2023-04-15T23:51:20.289Z,98362.44
2023-04-15T23:53:46.770Z,98362.63
2023-04-15T23:56:13.245Z,98367.81
2023-04-15T23:58:39.704Z,98374.16
